createdAt,value
2017-01-23T00:00:30.238Z,34.8
2017-01-23T00:01:30.266Z,34.8
2017-01-23T00:02:29.895Z,34.7
2017-01-23T00:03:29.920Z,34.99
2017-01-23T00:04:29.944Z,34.99
2017-01-23T00:05:30.365Z,35.08
2017-01-23T00:06:30.394Z,35.08
2017-01-23T00:07:30.027Z,34.89
2017-01-23T00:08:30.443Z,35.08
2017-01-23T00:09:30.469Z,34.51
2017-01-23T00:10:30.493Z,34.7
2017-01-23T00:11:30.121Z,35.08
2017-01-23T00:12:30.155Z,35.08
2017-01-23T00:13:30.183Z,34.89
2017-01-23T00:14:30.595Z,34.89
2017-01-23T00:15:30.623Z,34.61
2017-01-23T00:16:30.250Z,34.31
2017-01-23T00:17:30.278Z,34.8
2017-01-23T00:18:30.304Z,34.7
2017-01-23T00:19:30.328Z,34.99
2017-01-23T00:20:30.748Z,34.7
2017-01-23T00:21:30.386Z,34.61
2017-01-23T00:22:30.795Z,34.7
2017-01-23T00:23:30.827Z,34.8
2017-01-23T00:24:30.856Z,34.99
2017-01-23T00:25:30.480Z,34.89
2017-01-23T00:26:30.505Z,34.8
2017-01-23T00:27:30.926Z,34.99
2017-01-23T00:28:30.979Z,34.8
2017-01-23T00:29:30.584Z,34.99
2017-01-23T00:30:31.000Z,34.8
2017-01-23T00:31:30.632Z,34.99
2017-01-23T00:32:31.057Z,34.97
2017-01-23T00:33:30.682Z,34.7
2017-01-23T00:34:30.703Z,35.06
2017-01-23T00:35:31.127Z,35.08
2017-01-23T00:36:31.160Z,34.59
2017-01-23T00:37:31.186Z,34.59
2017-01-23T00:38:30.809Z,34.97
2017-01-23T00:39:31.231Z,34.99
2017-01-23T00:40:31.251Z,34.88
2017-01-23T00:41:31.280Z,35.06
2017-01-23T00:42:31.533Z,34.97
2017-01-23T00:43:30.933Z,35.06
2017-01-23T00:44:30.961Z,34.88
2017-01-23T00:45:30.982Z,34.39
2017-01-23T00:46:31.410Z,34.78
2017-01-23T00:47:31.035Z,34.59
2017-01-23T00:48:31.455Z,35.06
2017-01-23T00:49:31.081Z,34.49
2017-01-23T00:50:31.506Z,34.2
2017-01-23T00:51:31.534Z,34.88
2017-01-23T00:52:31.552Z,35.16
2017-01-23T00:53:31.584Z,34.49
2017-01-23T00:54:31.606Z,34.97
2017-01-23T00:55:31.256Z,34.39
2017-01-23T00:56:31.261Z,34.39
2017-01-23T00:57:31.286Z,34.49
2017-01-23T00:58:31.310Z,35.16
2017-01-23T00:59:31.333Z,34.88
2017-01-23T01:00:31.363Z,35.26
2017-01-23T01:01:31.404Z,35.06
2017-01-23T01:02:31.805Z,34.2
2017-01-23T01:03:31.824Z,34.39
2017-01-23T01:04:31.861Z,35.06
2017-01-23T01:05:31.489Z,34.11
2017-01-23T01:06:31.514Z,35.06
2017-01-23T01:07:31.932Z,34.97
2017-01-23T01:08:31.963Z,35.06
2017-01-23T01:09:31.976Z,34.97
2017-01-23T01:10:32.004Z,34.95
2017-01-23T01:11:31.633Z,34.49
2017-01-23T01:12:31.658Z,35.05
2017-01-23T01:13:31.685Z,34.95
2017-01-23T01:14:31.707Z,34.86
2017-01-23T01:15:31.735Z,35.14
2017-01-23T01:16:32.156Z,34.86
2017-01-23T01:17:31.785Z,35.05
2017-01-23T01:18:31.809Z,35.05
2017-01-23T01:19:31.830Z,35.05
2017-01-23T01:20:31.855Z,34.47
2017-01-23T01:21:32.279Z,35.05
2017-01-23T01:22:32.305Z,34.86
2017-01-23T01:23:31.933Z,34.19
2017-01-23T01:24:32.381Z,34.28
2017-01-23T01:25:32.383Z,35.05
2017-01-23T01:26:32.407Z,34.38
2017-01-23T01:27:32.035Z,34.28
2017-01-23T01:28:32.062Z,35.14
2017-01-23T01:29:32.109Z,34.95
2017-01-23T01:30:32.106Z,34.95
2017-01-23T01:31:32.531Z,34.38
2017-01-23T01:32:32.160Z,35.05
2017-01-23T01:33:32.581Z,35.05
2017-01-23T01:34:32.205Z,34.19
2017-01-23T01:35:32.629Z,34.95
2017-01-23T01:36:32.656Z,35.05
2017-01-23T01:37:32.675Z,34.47
2017-01-23T01:38:32.704Z,34.19
2017-01-23T01:39:32.333Z,34.86
2017-01-23T01:40:32.357Z,34.95
2017-01-23T01:41:32.386Z,35.05
2017-01-23T01:42:32.409Z,34.95
2017-01-23T01:43:32.828Z,34.47
2017-01-23T01:44:32.461Z,34.95
2017-01-23T01:45:32.886Z,34.19
2017-01-23T01:46:32.510Z,35.05
2017-01-23T01:47:32.932Z,34.86
2017-01-23T01:48:32.956Z,35.14
2017-01-23T01:49:32.580Z,34.95
2017-01-23T01:50:32.610Z,34.95
2017-01-23T01:51:32.635Z,34.95
2017-01-23T01:52:32.659Z,34.95
2017-01-23T01:53:32.704Z,34.76
2017-01-23T01:54:32.712Z,35.05
2017-01-23T01:55:32.725Z,34.95
2017-01-23T01:56:32.758Z,34.57
2017-01-23T01:57:32.785Z,34.95
2017-01-23T01:58:33.203Z,35.03
2017-01-23T01:59:32.830Z,35.05
2017-01-23T02:00:32.882Z,34.47
2017-01-23T02:01:32.877Z,34.75
2017-01-23T02:02:32.909Z,34.84
2017-01-23T02:03:32.926Z,35.13
2017-01-23T02:04:32.958Z,34.57
2017-01-23T02:05:33.365Z,34.84
2017-01-23T02:06:33.400Z,34.95
2017-01-23T02:07:33.028Z,35.03
2017-01-23T02:08:33.450Z,35.03
2017-01-23T02:09:33.473Z,34.84
2017-01-23T02:10:33.102Z,34.65
2017-01-23T02:11:33.127Z,34.65
2017-01-23T02:12:33.152Z,35.03
2017-01-23T02:13:33.181Z,34.75
2017-01-23T02:14:33.206Z,34.75
2017-01-23T02:15:33.217Z,34.94
2017-01-23T02:16:33.250Z,34.84
2017-01-23T02:17:33.272Z,34.84
2017-01-23T02:18:33.700Z,34.84
2017-01-23T02:19:33.723Z,34.84
2017-01-23T02:20:33.745Z,34.94
2017-01-23T02:21:33.370Z,34.75
2017-01-23T02:22:33.394Z,34.75
2017-01-23T02:23:33.423Z,34.75
2017-01-23T02:24:33.448Z,34.94
2017-01-23T02:25:33.471Z,34.94
2017-01-23T02:26:33.898Z,34.94
2017-01-23T02:27:33.522Z,35.03
2017-01-23T02:28:33.935Z,34.94
2017-01-23T02:29:33.968Z,35.03
2017-01-23T02:30:33.597Z,34.45
2017-01-23T02:31:33.649Z,34.65
2017-01-23T02:32:34.043Z,34.94
2017-01-23T02:33:33.672Z,34.94
2017-01-23T02:34:33.696Z,34.36
2017-01-23T02:35:33.721Z,34.94
2017-01-23T02:36:33.741Z,34.94
2017-01-23T02:37:33.770Z,34.84
2017-01-23T02:38:33.798Z,35.22
2017-01-23T02:39:34.215Z,34.27
2017-01-23T02:40:34.236Z,35.03
2017-01-23T02:41:33.873Z,34.45
2017-01-23T02:42:33.893Z,34.84
2017-01-23T02:43:33.920Z,35.03
2017-01-23T02:44:33.950Z,35.03
2017-01-23T02:45:33.967Z,35.13
2017-01-23T02:46:33.992Z,34.55
2017-01-23T02:47:34.017Z,34.55
2017-01-23T02:48:34.042Z,34.84
2017-01-23T02:49:34.463Z,35.03
2017-01-23T02:50:34.087Z,35.03
2017-01-23T02:51:34.512Z,35.13
2017-01-23T02:52:34.136Z,34.45
2017-01-23T02:53:34.561Z,35.03
2017-01-23T02:54:34.190Z,34.45
2017-01-23T02:55:34.612Z,34.55
2017-01-23T02:56:34.636Z,34.36
2017-01-23T02:57:34.260Z,34.65
2017-01-23T02:58:34.686Z,34.65
2017-01-23T02:59:34.710Z,34.55
2017-01-23T03:00:34.731Z,34.45
2017-01-23T03:01:34.361Z,34.55
2017-01-23T03:02:34.388Z,34.55
2017-01-23T03:03:34.405Z,34.65
2017-01-23T03:04:34.434Z,34.44
2017-01-23T03:05:34.460Z,34.55
2017-01-23T03:06:34.484Z,34.75
2017-01-23T03:07:34.904Z,34.45
2017-01-23T03:08:34.538Z,34.45
2017-01-23T03:09:34.554Z,34.27
2017-01-23T03:10:34.984Z,34.45
2017-01-23T03:11:35.004Z,34.55
2017-01-23T03:12:35.029Z,34.65
2017-01-23T03:13:34.654Z,34.65
2017-01-23T03:14:34.683Z,34.45
2017-01-23T03:15:34.707Z,34.73
2017-01-23T03:16:34.732Z,34.53
2017-01-23T03:17:34.757Z,34.63
2017-01-23T03:18:34.782Z,34.73
2017-01-23T03:19:34.807Z,34.92
2017-01-23T03:20:34.836Z,34.65
2017-01-23T03:21:35.254Z,34.82
2017-01-23T03:22:35.277Z,34.63
2017-01-23T03:23:34.902Z,34.73
2017-01-23T03:24:35.327Z,34.65
2017-01-23T03:25:35.348Z,34.65
2017-01-23T03:26:34.977Z,34.82
2017-01-23T03:27:34.998Z,34.63
2017-01-23T03:28:35.032Z,34.75
2017-01-23T03:29:35.050Z,34.84
2017-01-23T03:30:35.076Z,34.84
2017-01-23T03:31:35.101Z,34.92
2017-01-23T03:32:35.126Z,34.73
2017-01-23T03:33:35.150Z,34.92
2017-01-23T03:34:35.174Z,34.94
2017-01-23T03:35:35.204Z,34.73
2017-01-23T03:36:35.221Z,34.92
2017-01-23T03:37:35.245Z,34.73
2017-01-23T03:38:35.666Z,34.82
2017-01-23T03:39:35.296Z,34.53
2017-01-23T03:40:35.711Z,34.73
2017-01-23T03:41:35.337Z,34.63
2017-01-23T03:42:35.765Z,34.92
2017-01-23T03:43:35.790Z,34.44
2017-01-23T03:44:35.423Z,34.44
2017-01-23T03:45:35.440Z,34.63
2017-01-23T03:46:35.468Z,34.82
2017-01-23T03:47:35.495Z,34.73
2017-01-23T03:48:35.516Z,34.53
2017-01-23T03:49:35.936Z,34.53
2017-01-23T03:50:35.964Z,34.53
2017-01-23T03:51:35.989Z,34.63
2017-01-23T03:52:35.615Z,34.92
2017-01-23T03:53:35.639Z,35.02
2017-01-23T03:54:35.667Z,34.73
2017-01-23T03:55:35.684Z,34.63
2017-01-23T03:56:35.714Z,34.44
2017-01-23T03:57:36.138Z,34.44
2017-01-23T03:58:36.155Z,34.44
2017-01-23T03:59:36.184Z,34.73
2017-01-23T04:00:35.813Z,34.82
2017-01-23T04:01:36.233Z,34.63
2017-01-23T04:02:36.254Z,34.82
2017-01-23T04:03:36.288Z,35.02
2017-01-23T04:04:36.307Z,34.63
2017-01-23T04:05:35.932Z,34.44
2017-01-23T04:06:35.949Z,34.25
2017-01-23T04:07:35.983Z,34.63
2017-01-23T04:08:35.998Z,34.25
2017-01-23T04:09:36.039Z,34.63
2017-01-23T04:10:36.448Z,34.15
2017-01-23T04:11:36.478Z,34.44
2017-01-23T04:12:36.502Z,34.44
2017-01-23T04:13:36.129Z,34.53
2017-01-23T04:14:36.546Z,34.15
2017-01-23T04:15:36.176Z,34.15
2017-01-23T04:16:36.593Z,34.34
2017-01-23T04:17:36.622Z,34.34
2017-01-23T04:18:36.259Z,34.44
2017-01-23T04:19:36.667Z,34.25
2017-01-23T04:20:36.305Z,34.06
2017-01-23T04:21:36.718Z,34.06
2017-01-23T04:22:36.345Z,34.15
2017-01-23T04:23:36.369Z,34.15
2017-01-23T04:24:36.396Z,34.06
2017-01-23T04:25:36.420Z,34.34
2017-01-23T04:26:36.441Z,34.44
2017-01-23T04:27:36.862Z,34.15
2017-01-23T04:28:36.891Z,34.25
2017-01-23T04:29:36.518Z,34.25
2017-01-23T04:30:36.545Z,34.15
2017-01-23T04:31:36.567Z,34.15
2017-01-23T04:32:36.589Z,34.15
2017-01-23T04:33:37.023Z,34.25
2017-01-23T04:34:37.039Z,34.06
2017-01-23T04:35:36.668Z,34.15
2017-01-23T04:36:37.089Z,34.34
2017-01-23T04:37:37.115Z,34.15
2017-01-23T04:38:37.134Z,34.15
2017-01-23T04:39:36.767Z,34.15
2017-01-23T04:40:37.179Z,34.44
2017-01-23T04:41:36.812Z,34.25
2017-01-23T04:42:36.837Z,34.25
2017-01-23T04:43:36.857Z,34.15
2017-01-23T04:44:37.274Z,34.34
2017-01-23T04:45:36.920Z,34.44
2017-01-23T04:46:36.932Z,34.25
2017-01-23T04:47:37.347Z,34.25
2017-01-23T04:48:36.983Z,34.34
2017-01-23T04:49:37.007Z,34.15
2017-01-23T04:50:37.423Z,34.15
2017-01-23T04:51:37.060Z,34.25
2017-01-23T04:52:37.081Z,34.15
2017-01-23T04:53:37.499Z,34.23
2017-01-23T04:54:37.522Z,34.06
2017-01-23T04:55:37.151Z,34.06
2017-01-23T04:56:37.172Z,34.15
2017-01-23T04:57:37.203Z,34.33
2017-01-23T04:58:37.226Z,34.15
2017-01-23T04:59:37.646Z,34.25
2017-01-23T05:00:37.277Z,34.34
2017-01-23T05:01:37.297Z,34.25
2017-01-23T05:02:37.716Z,34.25
2017-01-23T05:03:37.346Z,34.15
2017-01-23T05:04:37.373Z,34.34
2017-01-23T05:05:37.394Z,34.33
2017-01-23T05:06:37.819Z,34.14
2017-01-23T05:07:37.444Z,34.33
2017-01-23T05:08:37.865Z,34.23
2017-01-23T05:09:37.884Z,34.23
2017-01-23T05:10:37.514Z,34.14
2017-01-23T05:11:37.534Z,34.33
2017-01-23T05:12:37.971Z,34.23
2017-01-23T05:13:37.588Z,34.33
2017-01-23T05:14:37.608Z,34.23
2017-01-23T05:15:38.033Z,34.23
2017-01-23T05:16:37.665Z,34.23
2017-01-23T05:17:38.079Z,33.94
2017-01-23T05:18:37.708Z,34.23
2017-01-23T05:19:37.734Z,34.04
2017-01-23T05:20:37.787Z,33.84
2017-01-23T05:21:37.782Z,33.94
2017-01-23T05:22:37.807Z,34.33
2017-01-23T05:23:37.832Z,34.33
2017-01-23T05:24:37.852Z,34.33
2017-01-23T05:25:37.877Z,34.33
2017-01-23T05:26:38.303Z,34.33
2017-01-23T05:27:37.927Z,34.42
2017-01-23T05:28:38.347Z,34.61
2017-01-23T05:29:38.372Z,34.33
2017-01-23T05:30:38.401Z,34.23
2017-01-23T05:31:38.418Z,34.15
2017-01-23T05:32:38.046Z,34.44
2017-01-23T05:33:38.072Z,34.25
2017-01-23T05:34:38.493Z,34.15
2017-01-23T05:35:38.121Z,34.34
2017-01-23T05:36:38.542Z,34.25
2017-01-23T05:37:38.566Z,34.15
2017-01-23T05:38:38.587Z,34.25
2017-01-23T05:39:38.607Z,33.96
2017-01-23T05:40:38.640Z,34.06
2017-01-23T05:41:38.292Z,33.86
2017-01-23T05:42:38.686Z,33.86
2017-01-23T05:43:38.314Z,33.86
2017-01-23T05:44:38.336Z,34.15
2017-01-23T05:45:38.368Z,34.06
2017-01-23T05:46:38.786Z,34.15
2017-01-23T05:47:38.409Z,34.06
2017-01-23T05:48:38.831Z,34.17
2017-01-23T05:49:38.459Z,33.86
2017-01-23T05:50:38.479Z,33.88
2017-01-23T05:51:38.508Z,33.69
2017-01-23T05:52:38.529Z,33.67
2017-01-23T05:53:38.558Z,33.69
2017-01-23T05:54:38.586Z,33.77
2017-01-23T05:55:38.599Z,33.88
2017-01-23T05:56:38.626Z,33.78
2017-01-23T05:57:38.654Z,33.98
2017-01-23T05:58:38.679Z,33.98
2017-01-23T05:59:38.703Z,33.98
2017-01-23T06:00:39.111Z,33.59
2017-01-23T06:01:39.148Z,33.4
2017-01-23T06:02:38.782Z,33.4
2017-01-23T06:03:38.800Z,33.5
2017-01-23T06:04:39.218Z,33.4
2017-01-23T06:05:39.246Z,33.5
2017-01-23T06:06:38.872Z,33.31
2017-01-23T06:07:38.897Z,33.59
2017-01-23T06:08:38.918Z,33.5
2017-01-23T06:09:39.342Z,33.59
2017-01-23T06:10:38.972Z,33.5
2017-01-23T06:11:39.406Z,33.4
2017-01-23T06:12:39.021Z,33.4
2017-01-23T06:13:39.037Z,33.4
2017-01-23T06:14:39.465Z,33.69
2017-01-23T06:15:39.495Z,33.98
2017-01-23T06:16:39.515Z,34.07
2017-01-23T06:17:39.537Z,34.17
2017-01-23T06:18:39.189Z,34.17
2017-01-23T06:19:39.582Z,34.09
2017-01-23T06:20:39.214Z,34.36
2017-01-23T06:21:39.635Z,34.28
2017-01-23T06:22:39.660Z,34.19
2017-01-23T06:23:39.685Z,34.28
2017-01-23T06:24:39.709Z,34.36
2017-01-23T06:25:39.339Z,34.67
2017-01-23T06:26:39.358Z,34.95
2017-01-23T06:27:39.775Z,34.47
2017-01-23T06:28:39.416Z,34.86
2017-01-23T06:29:39.829Z,35.05
2017-01-23T06:30:39.481Z,34.95
2017-01-23T06:31:39.485Z,34.95
2017-01-23T06:32:39.902Z,34.95
2017-01-23T06:33:39.927Z,34.28
2017-01-23T06:34:39.953Z,34.57
2017-01-23T06:35:39.977Z,34.76
2017-01-23T06:36:40.007Z,34.67
2017-01-23T06:37:39.628Z,35.14
2017-01-23T06:38:40.051Z,34.76
2017-01-23T06:39:40.080Z,34.86
2017-01-23T06:40:39.705Z,35.05
2017-01-23T06:41:40.122Z,34.76
2017-01-23T06:42:39.748Z,34.76
2017-01-23T06:43:39.775Z,34.76
2017-01-23T06:44:39.800Z,34.86
2017-01-23T06:45:40.236Z,34.86
2017-01-23T06:46:40.250Z,34.76
2017-01-23T06:47:40.270Z,34.95
2017-01-23T06:48:40.351Z,34.95
2017-01-23T06:49:39.919Z,35.24
2017-01-23T06:50:39.952Z,34.76
2017-01-23T06:51:39.970Z,34.67
2017-01-23T06:52:40.001Z,34.95
2017-01-23T06:53:40.023Z,35.14
2017-01-23T06:54:40.047Z,35.14
2017-01-23T06:55:40.469Z,34.95
2017-01-23T06:56:40.488Z,34.86
2017-01-23T06:57:40.522Z,34.95
2017-01-23T06:58:40.538Z,34.76
2017-01-23T06:59:40.171Z,34.95
2017-01-23T07:00:40.195Z,35.05
2017-01-23T07:01:40.210Z,35.82
2017-01-23T07:02:40.634Z,35.82
2017-01-23T07:03:40.662Z,35.82
2017-01-23T07:04:40.690Z,36.11
2017-01-23T07:05:40.320Z,35.91
2017-01-23T07:06:40.348Z,35.43
2017-01-23T07:07:40.369Z,35.63
2017-01-23T07:08:40.387Z,35.72
2017-01-23T07:09:40.815Z,35.63
2017-01-23T07:10:40.839Z,35.63
2017-01-23T07:11:40.468Z,35.43
2017-01-23T07:12:40.884Z,35.53
2017-01-23T07:13:40.513Z,35.53
2017-01-23T07:14:40.537Z,35.82
2017-01-23T07:15:40.959Z,35.72
2017-01-23T07:16:40.596Z,35.53
2017-01-23T07:17:41.008Z,35.72
2017-01-23T07:18:41.032Z,35.63
2017-01-23T07:19:40.659Z,35.63
2017-01-23T07:20:41.082Z,35.82
2017-01-23T07:21:41.108Z,35.63
2017-01-23T07:22:41.153Z,35.72
2017-01-23T07:23:40.761Z,35.53
2017-01-23T07:24:41.181Z,35.53
2017-01-23T07:25:40.813Z,35.63
2017-01-23T07:26:41.231Z,35.53
2017-01-23T07:27:40.859Z,35.53
2017-01-23T07:28:40.884Z,35.53
2017-01-23T07:29:41.306Z,35.34
2017-01-23T07:30:41.325Z,35.34
2017-01-23T07:31:41.355Z,35.43
2017-01-23T07:32:41.015Z,35.34
2017-01-23T07:33:41.008Z,35.43
2017-01-23T07:34:41.431Z,35.43
2017-01-23T07:35:41.453Z,35.53
2017-01-23T07:36:41.082Z,35.72
2017-01-23T07:37:41.108Z,35.53
2017-01-23T07:38:41.533Z,35.63
2017-01-23T07:39:41.156Z,35.43
2017-01-23T07:40:41.181Z,35.43
2017-01-23T07:41:41.602Z,35.72
2017-01-23T07:42:41.626Z,35.43
2017-01-23T07:43:41.651Z,35.72
2017-01-23T07:44:41.675Z,35.72
2017-01-23T07:45:41.701Z,35.53
2017-01-23T07:46:41.329Z,35.53
2017-01-23T07:47:41.759Z,35.43
2017-01-23T07:48:41.372Z,35.43
2017-01-23T07:49:41.800Z,35.43
2017-01-23T07:50:41.829Z,35.43
2017-01-23T07:51:41.849Z,35.63
2017-01-23T07:52:41.870Z,35.24
2017-01-23T07:53:41.503Z,35.42
2017-01-23T07:54:41.923Z,35.53
2017-01-23T07:55:41.948Z,35.43
2017-01-23T07:56:41.581Z,35.63
2017-01-23T07:57:41.602Z,35.63
2017-01-23T07:58:41.626Z,35.63
2017-01-23T07:59:41.657Z,35.43
2017-01-23T08:00:42.068Z,35.72
2017-01-23T08:01:41.701Z,35.71
2017-01-23T08:02:42.117Z,35.43
2017-01-23T08:03:42.138Z,35.71
2017-01-23T08:04:42.167Z,35.8
2017-01-23T08:05:42.184Z,35.51
2017-01-23T08:06:42.216Z,35.61
2017-01-23T08:07:42.244Z,35.71
2017-01-23T08:08:41.871Z,35.42
2017-01-23T08:09:41.895Z,35.42
2017-01-23T08:10:42.316Z,35.42
2017-01-23T08:11:42.341Z,35.51
2017-01-23T08:12:41.969Z,35.61
2017-01-23T08:13:41.991Z,35.61
2017-01-23T08:14:42.411Z,35.71
2017-01-23T08:15:42.043Z,35.71
2017-01-23T08:16:42.464Z,35.51
2017-01-23T08:17:42.090Z,35.61
2017-01-23T08:18:42.513Z,35.51
2017-01-23T08:19:42.138Z,35.71
2017-01-23T08:20:42.563Z,35.51
2017-01-23T08:21:42.185Z,35.42
2017-01-23T08:22:42.608Z,35.51
2017-01-23T08:23:42.233Z,35.42
2017-01-23T08:24:42.262Z,35.42
2017-01-23T08:25:42.682Z,35.51
2017-01-23T08:26:42.310Z,35.42
2017-01-23T08:27:42.336Z,35.42
2017-01-23T08:28:42.757Z,35.61
2017-01-23T08:29:42.781Z,35.42
2017-01-23T08:30:42.811Z,35.32
2017-01-23T08:31:42.831Z,34.86
2017-01-23T08:32:42.854Z,34.86
2017-01-23T08:33:42.881Z,34.47
2017-01-23T08:34:42.513Z,34.88
2017-01-23T08:35:42.530Z,34.49
2017-01-23T08:36:42.559Z,34.39
2017-01-23T08:37:42.971Z,34.3
2017-01-23T08:38:43.003Z,34.97
2017-01-23T08:39:43.027Z,34.68
2017-01-23T08:40:42.657Z,34.59
2017-01-23T08:41:43.073Z,35.06
2017-01-23T08:42:42.706Z,35.05
2017-01-23T08:43:43.123Z,34.95
2017-01-23T08:44:42.752Z,34.76
2017-01-23T08:45:43.176Z,35.14
2017-01-23T08:46:43.197Z,34.95
2017-01-23T08:47:43.248Z,34.76
2017-01-23T08:48:42.846Z,34.47
2017-01-23T08:49:42.874Z,35.14
2017-01-23T08:50:42.931Z,34.95
2017-01-23T08:51:42.922Z,34.95
2017-01-23T08:52:43.340Z,34.86
2017-01-23T08:53:43.369Z,34.86
2017-01-23T08:54:42.998Z,34.76
2017-01-23T08:55:43.413Z,34.86
2017-01-23T08:56:43.443Z,35.05
2017-01-23T08:57:43.469Z,35.05
2017-01-23T08:58:43.493Z,34.95
2017-01-23T08:59:43.125Z,35.14
2017-01-23T09:00:43.154Z,34.95
2017-01-23T09:01:43.172Z,34.95
2017-01-23T09:02:43.191Z,35.43
2017-01-23T09:03:43.614Z,35.05
2017-01-23T09:04:43.243Z,35.24
2017-01-23T09:05:43.270Z,35.05
2017-01-23T09:06:43.691Z,35.34
2017-01-23T09:07:43.716Z,35.05
2017-01-23T09:08:43.345Z,34.95
2017-01-23T09:09:43.368Z,34.95
2017-01-23T09:10:43.790Z,35.05
2017-01-23T09:11:43.423Z,34.86
2017-01-23T09:12:43.443Z,34.95
2017-01-23T09:13:43.864Z,34.95
2017-01-23T09:14:43.889Z,35.24
2017-01-23T09:15:43.518Z,35.05
2017-01-23T09:16:43.945Z,34.95
2017-01-23T09:17:43.568Z,35.05
2017-01-23T09:18:43.592Z,35.14
2017-01-23T09:19:43.616Z,35.14
2017-01-23T09:20:44.038Z,34.95
2017-01-23T09:21:43.662Z,35.14
2017-01-23T09:22:44.095Z,34.95
2017-01-23T09:23:44.116Z,35.05
2017-01-23T09:24:43.741Z,34.86
2017-01-23T09:25:43.766Z,34.86
2017-01-23T09:26:44.187Z,34.76
2017-01-23T09:27:44.212Z,34.95
2017-01-23T09:28:44.236Z,34.88
2017-01-23T09:29:44.260Z,35.34
2017-01-23T09:30:43.890Z,34.49
2017-01-23T09:31:43.914Z,34.95
2017-01-23T09:32:44.334Z,34.76
2017-01-23T09:33:43.969Z,34.88
2017-01-23T09:34:43.988Z,34.78
2017-01-23T09:35:44.013Z,35.06
2017-01-23T09:36:44.434Z,35.06
2017-01-23T09:37:44.463Z,34.78
2017-01-23T09:38:44.485Z,34.97
2017-01-23T09:39:44.112Z,34.97
2017-01-23T09:40:44.137Z,34.59
2017-01-23T09:41:44.162Z,34.68
2017-01-23T09:42:44.183Z,34.59
2017-01-23T09:43:44.608Z,34.59
2017-01-23T09:44:44.236Z,34.97
2017-01-23T09:45:44.261Z,34.78
2017-01-23T09:46:44.687Z,34.78
2017-01-23T09:47:44.306Z,34.39
2017-01-23T09:48:44.767Z,34.2
2017-01-23T09:49:44.755Z,34.3
2017-01-23T09:50:44.385Z,34.2
2017-01-23T09:51:44.417Z,34.2
2017-01-23T09:52:44.830Z,33.91
2017-01-23T09:53:44.455Z,33.82
2017-01-23T09:54:44.485Z,33.84
2017-01-23T09:55:44.508Z,33.93
2017-01-23T09:56:44.926Z,34.22
2017-01-23T09:57:44.955Z,34.03
2017-01-23T09:58:45.003Z,34.12
2017-01-23T09:59:44.607Z,34.22
2017-01-23T10:00:45.028Z,34.22
2017-01-23T10:01:45.054Z,34.12
2017-01-23T10:02:44.681Z,34.22
2017-01-23T10:03:45.122Z,34.22
2017-01-23T10:04:44.722Z,34.12
2017-01-23T10:05:44.755Z,34.12
2017-01-23T10:06:45.181Z,33.84
2017-01-23T10:07:45.202Z,34.22
2017-01-23T10:08:45.225Z,33.93
2017-01-23T10:09:45.250Z,33.84
2017-01-23T10:10:44.885Z,33.84
2017-01-23T10:11:44.911Z,34.12
2017-01-23T10:12:45.329Z,34.12
2017-01-23T10:13:44.957Z,34.03
2017-01-23T10:14:44.982Z,34.51
2017-01-23T10:15:45.402Z,34.22
2017-01-23T10:16:45.031Z,34.3
2017-01-23T10:17:45.453Z,34.22
2017-01-23T10:18:45.085Z,34.22
2017-01-23T10:19:45.104Z,34.51
2017-01-23T10:20:45.530Z,34.31
2017-01-23T10:21:45.155Z,34.39
2017-01-23T10:22:45.580Z,34.41
2017-01-23T10:23:45.200Z,34.51
2017-01-23T10:24:45.629Z,34.61
2017-01-23T10:25:45.650Z,34.8
2017-01-23T10:26:45.681Z,34.99
2017-01-23T10:27:45.705Z,34.78
2017-01-23T10:28:45.727Z,34.49
2017-01-23T10:29:45.749Z,34.61
2017-01-23T10:30:45.774Z,34.7
2017-01-23T10:31:45.807Z,34.78
2017-01-23T10:32:45.431Z,34.97
2017-01-23T10:33:45.852Z,34.78
2017-01-23T10:34:45.481Z,34.68
2017-01-23T10:35:45.901Z,34.59
2017-01-23T10:36:45.534Z,34.8
2017-01-23T10:37:45.952Z,34.59
2017-01-23T10:38:45.584Z,34.59
2017-01-23T10:39:45.608Z,34.51
2017-01-23T10:40:45.660Z,34.59
2017-01-23T10:41:46.053Z,34.68
2017-01-23T10:42:45.677Z,34.68
2017-01-23T10:43:45.709Z,34.39
2017-01-23T10:44:46.128Z,34.49
2017-01-23T10:45:46.149Z,34.59
2017-01-23T10:46:46.186Z,34.59
2017-01-23T10:47:46.206Z,35.06
2017-01-23T10:48:46.231Z,34.51
2017-01-23T10:49:45.856Z,34.59
2017-01-23T10:50:46.277Z,34.3
2017-01-23T10:51:45.909Z,34.7
2017-01-23T10:52:46.331Z,34.68
2017-01-23T10:53:46.358Z,34.31
2017-01-23T10:54:45.988Z,34.7
2017-01-23T10:55:46.008Z,34.68
2017-01-23T10:56:46.038Z,34.89
2017-01-23T10:57:46.457Z,34.8
2017-01-23T10:58:46.480Z,34.99
2017-01-23T10:59:46.508Z,34.39
2017-01-23T11:00:46.564Z,34.8
2017-01-23T11:01:46.557Z,34.89
2017-01-23T11:02:46.582Z,34.7
2017-01-23T11:03:46.601Z,34.51
2017-01-23T11:04:46.239Z,35.06
2017-01-23T11:05:46.660Z,34.78
2017-01-23T11:06:46.295Z,34.59
2017-01-23T11:07:46.705Z,34.51
2017-01-23T11:08:46.338Z,34.51
2017-01-23T11:09:46.362Z,34.39
2017-01-23T11:10:46.385Z,34.88
2017-01-23T11:11:46.419Z,34.8
2017-01-23T11:12:46.445Z,34.78
2017-01-23T11:13:46.468Z,34.51
2017-01-23T11:14:46.887Z,34.89
2017-01-23T11:15:46.515Z,34.8
2017-01-23T11:16:46.940Z,34.68
2017-01-23T11:17:46.960Z,34.22
2017-01-23T11:18:46.589Z,34.22
2017-01-23T11:19:47.018Z,34.01
2017-01-23T11:20:46.639Z,33.91
2017-01-23T11:21:46.673Z,33.84
2017-01-23T11:22:46.692Z,33.93
2017-01-23T11:23:47.108Z,33.91
2017-01-23T11:24:46.742Z,33.93
2017-01-23T11:25:47.163Z,33.93
2017-01-23T11:26:46.796Z,33.93
2017-01-23T11:27:47.220Z,33.84
2017-01-23T11:28:46.846Z,34.03
2017-01-23T11:29:46.870Z,34.03
2017-01-23T11:30:47.291Z,34.22
2017-01-23T11:31:46.918Z,34.03
2017-01-23T11:32:46.943Z,33.74
2017-01-23T11:33:47.392Z,33.74
2017-01-23T11:34:47.394Z,33.93
2017-01-23T11:35:47.421Z,33.64
2017-01-23T11:36:47.443Z,33.64
2017-01-23T11:37:47.075Z,33.36
2017-01-23T11:38:47.100Z,33.64
2017-01-23T11:39:47.522Z,33.54
2017-01-23T11:40:47.173Z,33.45
2017-01-23T11:41:47.171Z,33.74
2017-01-23T11:42:47.599Z,33.47
2017-01-23T11:43:47.647Z,33.36
2017-01-23T11:44:47.648Z,33.08
2017-01-23T11:45:47.678Z,33.28
2017-01-23T11:46:47.698Z,33.08
2017-01-23T11:47:47.326Z,32.98
2017-01-23T11:48:47.747Z,32.89
2017-01-23T11:49:47.779Z,33.18
2017-01-23T11:50:47.404Z,33.08
2017-01-23T11:51:47.822Z,32.89
2017-01-23T11:52:47.459Z,32.89
2017-01-23T11:53:47.479Z,32.7
2017-01-23T11:54:47.507Z,32.98
2017-01-23T11:55:47.524Z,33.08
2017-01-23T11:56:47.582Z,32.33
2017-01-23T11:57:47.984Z,32.62
2017-01-23T11:58:48.006Z,32.71
2017-01-23T11:59:47.636Z,32.62
2017-01-23T12:00:47.668Z,32.71
2017-01-23T12:01:47.690Z,32.62
2017-01-23T12:02:48.110Z,32.62
2017-01-23T12:03:47.738Z,32.52
2017-01-23T12:04:48.160Z,32.33
2017-01-23T12:05:48.188Z,32.43
2017-01-23T12:06:48.209Z,32.33
2017-01-23T12:07:47.846Z,32.33
2017-01-23T12:08:48.262Z,32.43
2017-01-23T12:09:48.299Z,32.52
2017-01-23T12:10:47.934Z,32.33
2017-01-23T12:11:47.948Z,32.14
2017-01-23T12:12:47.965Z,31.95
2017-01-23T12:13:48.395Z,31.75
2017-01-23T12:14:48.019Z,32.23
2017-01-23T12:15:48.439Z,32.14
2017-01-23T12:16:48.076Z,32.23
2017-01-23T12:17:48.117Z,32.14
2017-01-23T12:18:48.130Z,31.95
2017-01-23T12:19:48.158Z,32.04
2017-01-23T12:20:48.179Z,32.04
2017-01-23T12:21:48.204Z,31.75
2017-01-23T12:22:48.232Z,32.04
2017-01-23T12:23:48.657Z,31.75
2017-01-23T12:24:48.304Z,31.75
2017-01-23T12:25:48.712Z,31.85
2017-01-23T12:26:48.732Z,31.85
2017-01-23T12:27:48.752Z,31.75
2017-01-23T12:28:48.389Z,31.65
2017-01-23T12:29:48.811Z,31.85
2017-01-23T12:30:48.438Z,31.95
2017-01-23T12:31:48.467Z,32.04
2017-01-23T12:32:48.492Z,31.95
2017-01-23T12:33:48.516Z,31.85
2017-01-23T12:34:48.537Z,31.95
2017-01-23T12:35:48.965Z,31.95
2017-01-23T12:36:48.595Z,31.85
2017-01-23T12:37:49.020Z,31.95
2017-01-23T12:38:49.044Z,31.75
2017-01-23T12:39:48.669Z,31.85
2017-01-23T12:40:48.697Z,31.65
2017-01-23T12:41:48.723Z,32.04
2017-01-23T12:42:48.750Z,32.04
2017-01-23T12:43:48.767Z,31.85
2017-01-23T12:44:49.196Z,31.83
2017-01-23T12:45:49.222Z,31.93
2017-01-23T12:46:49.247Z,32.21
2017-01-23T12:47:49.275Z,32.21
2017-01-23T12:48:49.300Z,31.93
2017-01-23T12:49:49.323Z,31.93
2017-01-23T12:50:49.354Z,32.41
2017-01-23T12:51:49.373Z,32.21
2017-01-23T12:52:49.405Z,32.21
2017-01-23T12:53:49.432Z,32.12
2017-01-23T12:54:49.452Z,32.31